Station Historical Data
Daily Summary for April 16, 2017 Units:  English    Metric   Both
« Previous Day
Next Day »
Daily Weekly Monthly Yearly Custom
  High: Low: Average:
Temperature: 80.6 °F 59.3 °F 70.3 °F
Dew Point: 59.1 °F 52.8 °F 55.3 °F
Humidity: 87% 41% 61%
Wind Speed: 1.0mph 0.0mph 0.1mph
Wind Gust: 5.0mph - -
Wind- - NW
Pressure: 30.29 in 30.13 in -
Precipitation: 0.00 in    
Historical Graphs
 
 
Tabular Data for April 16, 2017
Time Temperature Dew Point Pressure Wind Wind Speed Wind Gust Humidity Rainfall Rate (Hourly) solar Conditions
00:00 64.1 °F 53.7 °F 30.25 in Calm     69% 0.00 in WeatherDisplay:10.37 W/m2 CLR
00:15 63.5 °F 53.9 °F 30.25 in Calm     71% 0.00 in WeatherDisplay:10.37 W/m2 CLR
00:30 63.1 °F 53.9 °F 30.25 in Calm     72% 0.00 in WeatherDisplay:10.37 W/m2 CLR
00:45 62.5 °F 53.8 °F 30.25 in Calm     73% 0.00 in WeatherDisplay:10.37 W/m2 CLR
01:00 62.1 °F 53.7 °F 30.25 in Calm     74% 0.00 in WeatherDisplay:10.37 W/m2 CLR
01:15 61.7 °F 53.3 °F 30.25 in Calm     74% 0.00 in WeatherDisplay:10.37 W/m2 CLR
01:30 61.7 °F 53.0 °F 30.25 in Calm     73% 0.00 in WeatherDisplay:10.37 W/m2 CLR
01:45 63.1 °F 53.1 °F 30.25 in Calm     70% 0.00 in WeatherDisplay:10.37 W/m2 CLR
02:00 63.4 °F 53.0 °F 30.25 in Calm     69% 0.00 in WeatherDisplay:10.37 W/m2 CLR
02:15 63.8 °F 53.0 °F 30.24 in Calm   1.0 mph 68% 0.00 in WeatherDisplay:10.37 W/m2 CLR
02:30 64.4 °F 52.8 °F 30.24 in Calm   1.0 mph 66% 0.00 in WeatherDisplay:10.37 W/m2 CLR
02:45 64.2 °F 53.0 °F 30.24 in Calm     67% 0.00 in WeatherDisplay:10.37 W/m2 CLR
03:00 63.7 °F 53.4 °F 30.24 in Calm     69% 0.00 in WeatherDisplay:10.37 W/m2 CLR
03:15 63.4 °F 53.4 °F 30.23 in Calm     70% 0.00 in WeatherDisplay:10.37 W/m2 CLR
03:30 63.3 °F 53.7 °F 30.23 in Calm     71% 0.00 in WeatherDisplay:10.37 W/m2 CLR
03:45 62.8 °F 53.6 °F 30.22 in Calm     72% 0.00 in WeatherDisplay:10.37 W/m2 CLR
04:00 62.2 °F 53.4 °F 30.22 in Calm     73% 0.00 in WeatherDisplay:10.37 W/m2 CLR
04:15 62.2 °F 53.4 °F 30.22 in Calm     73% 0.00 in WeatherDisplay:10.37 W/m2 CLR
04:30 62.2 °F 53.4 °F 30.22 in Calm     73% 0.00 in WeatherDisplay:10.37 W/m2 CLR
04:45 62.2 °F 53.4 °F 30.22 in Calm     73% 0.00 in WeatherDisplay:10.37 W/m2 CLR
05:00 62.2 °F 53.4 °F 30.22 in Calm     73% 0.00 in WeatherDisplay:10.37 W/m2 CLR
05:15 62.2 °F 53.4 °F 30.22 in Calm     73% 0.00 in WeatherDisplay:10.37 W/m2 CLR
05:30 62.2 °F 53.4 °F 30.22 in Calm     73% 0.00 in WeatherDisplay:10.37 W/m2 CLR
06:00 62.2 °F 53.4 °F 30.23 in Calm     73% 0.00 in WeatherDisplay:10.37 W/m2 CLR
06:15 62.2 °F 53.4 °F 30.23 in Calm     73% 0.00 in WeatherDisplay:10.37 W/m2 CLR
06:30 62.2 °F 53.4 °F 30.24 in Calm     73% 0.00 in WeatherDisplay:10.37 W/m2 CLR
06:45 62.2 °F 53.4 °F 30.25 in Calm     73% 0.00 in WeatherDisplay:10.37 W/m2 CLR
07:00 62.2 °F 53.4 °F 30.25 in Calm     73% 0.00 in WeatherDisplay:10.37 W/m2 CLR
07:15 62.2 °F 53.4 °F 30.25 in Calm     73% 0.00 in WeatherDisplay:10.37 W/m2 CLR
07:30 62.2 °F 53.4 °F 30.25 in Calm     73% 0.00 in WeatherDisplay:10.37 W/m2 CLR
08:00 62.2 °F 53.4 °F 30.27 in Calm     73% 0.00 in WeatherDisplay:10.37 W/m2 CLR
08:15 59.3 °F 55.4 °F 30.28 in Calm     87% 0.00 in WeatherDisplay:10.37 W/m2 CLR
08:30 61.0 °F 56.8 °F 30.28 in Calm     86% 0.00 in WeatherDisplay:10.37 W/m2 CLR
08:45 62.6 °F 57.7 °F 30.28 in Calm     84% 0.00 in WeatherDisplay:10.37 W/m2 CLR
09:00 65.0 °F 58.7 °F 30.28 in Calm   1.0 mph 80% 0.00 in WeatherDisplay:10.37 W/m2 CLR
09:15 66.8 °F 59.0 °F 30.29 in Calm   2.0 mph 76% 0.00 in WeatherDisplay:10.37 W/m2 CLR
09:30 68.1 °F 59.1 °F 30.29 in Calm   4.0 mph 73% 0.00 in WeatherDisplay:10.37 W/m2 CLR
09:45 69.0 °F 58.4 °F 30.28 in Calm   5.0 mph 69% 0.00 in WeatherDisplay:10.37 W/m2 CLR
10:00 70.4 °F 58.5 °F 30.28 in Calm   2.0 mph 66% 0.00 in WeatherDisplay:10.37 W/m2 CLR
10:15 71.6 °F 57.4 °F 30.28 in WNW 1.0 mph 2.0 mph 61% 0.00 in WeatherDisplay:10.37 W/m2 CLR
10:30 71.5 °F 57.8 °F 30.28 in Calm   3.0 mph 62% 0.00 in WeatherDisplay:10.37 W/m2 CLR
10:45 72.2 °F 57.1 °F 30.28 in Calm   2.0 mph 59% 0.00 in WeatherDisplay:10.37 W/m2 CLR
11:00 73.3 °F 58.1 °F 30.28 in Calm   5.0 mph 59% 0.00 in WeatherDisplay:10.37 W/m2 CLR
11:15 74.2 °F 57.5 °F 30.28 in Calm   1.0 mph 56% 0.00 in WeatherDisplay:10.37 W/m2 CLR
11:30 75.4 °F 57.6 °F 30.28 in Calm   2.0 mph 54% 0.00 in WeatherDisplay:10.37 W/m2 CLR
11:45 76.7 °F 58.8 °F 30.27 in Calm   5.0 mph 54% 0.00 in WeatherDisplay:10.37 W/m2 CLR
12:00 77.6 °F 58.5 °F 30.27 in Calm   5.0 mph 52% 0.00 in WeatherDisplay:10.37 W/m2 CLR
12:15 77.6 °F 59.1 °F 30.26 in Calm   3.0 mph 53% 0.00 in WeatherDisplay:10.37 W/m2 CLR
12:30 78.8 °F 58.5 °F 30.26 in NW 1.0 mph 3.0 mph 50% 0.00 in WeatherDisplay:10.37 W/m2 CLR
12:45 80.0 °F 57.3 °F 30.25 in WNW 1.0 mph 2.0 mph 46% 0.00 in WeatherDisplay:10.37 W/m2 CLR
13:00 80.2 °F 58.1 °F 30.24 in Calm   2.0 mph 47% 0.00 in WeatherDisplay:10.37 W/m2 CLR
13:15 80.3 °F 57.6 °F 30.23 in North 1.0 mph 3.0 mph 46% 0.00 in WeatherDisplay:10.37 W/m2 CLR
13:30 80.6 °F 57.9 °F 30.23 in Calm   2.0 mph 46% 0.00 in WeatherDisplay:10.37 W/m2 CLR
14:00 79.1 °F 57.1 °F 30.21 in Calm   2.0 mph 47% 0.00 in WeatherDisplay:10.37 W/m2 CLR
14:15 79.8 °F 57.8 °F 30.21 in Calm   2.0 mph 47% 0.00 in WeatherDisplay:10.37 W/m2 CLR
14:30 79.8 °F 57.2 °F 30.20 in Calm   2.0 mph 46% 0.00 in WeatherDisplay:10.37 W/m2 CLR
14:45 79.8 °F 55.9 °F 30.19 in Calm   1.0 mph 44% 0.00 in WeatherDisplay:10.37 W/m2 CLR
15:00 79.4 °F 58.0 °F 30.19 in Calm   3.0 mph 48% 0.00 in WeatherDisplay:10.37 W/m2 CLR
15:15 79.2 °F 56.0 °F 30.19 in Calm   3.0 mph 45% 0.00 in WeatherDisplay:10.37 W/m2 CLR
15:30 78.8 °F 56.2 °F 30.19 in Calm   3.0 mph 46% 0.00 in WeatherDisplay:10.37 W/m2 CLR
15:45 80.3 °F 57.7 °F 30.18 in Calm   1.0 mph 46% 0.00 in WeatherDisplay:10.37 W/m2 CLR
16:00 79.3 °F 56.1 °F 30.17 in Calm   2.0 mph 45% 0.00 in WeatherDisplay:10.37 W/m2 CLR
16:15 79.9 °F 54.7 °F 30.17 in WNW 1.0 mph 3.0 mph 42% 0.00 in WeatherDisplay:10.37 W/m2 CLR
16:30 80.1 °F 54.3 °F 30.16 in Calm   3.0 mph 41% 0.00 in WeatherDisplay:10.37 W/m2 CLR
16:45 80.3 °F 54.5 °F 30.15 in Calm   3.0 mph 41% 0.00 in WeatherDisplay:10.37 W/m2 CLR
17:00 79.3 °F 53.6 °F 30.15 in Calm   3.0 mph 41% 0.00 in WeatherDisplay:10.37 W/m2 CLR
17:15 80.3 °F 54.5 °F 30.15 in Calm   2.0 mph 41% 0.00 in WeatherDisplay:10.37 W/m2 CLR
17:30 80.2 °F 54.4 °F 30.15 in Calm   1.0 mph 41% 0.00 in WeatherDisplay:10.37 W/m2 CLR
17:45 79.8 °F 54.0 °F 30.14 in Calm   3.0 mph 41% 0.00 in WeatherDisplay:10.37 W/m2 SCT
18:00 79.7 °F 54.6 °F 30.14 in Calm   5.0 mph 42% 0.00 in WeatherDisplay:10.37 W/m2 SCT
18:15 78.9 °F 55.2 °F 30.13 in Calm   2.0 mph 44% 0.00 in WeatherDisplay:10.37 W/m2 SCT
18:30 78.5 °F 53.5 °F 30.13 in Calm   2.0 mph 42% 0.00 in WeatherDisplay:10.37 W/m2 SCT
18:45 77.7 °F 53.4 °F 30.13 in Calm   1.0 mph 43% 0.00 in WeatherDisplay:10.37 W/m2 SCT
19:00 76.7 °F 53.8 °F 30.13 in Calm   2.0 mph 45% 0.00 in WeatherDisplay:10.37 W/m2 SCT
19:15 76.2 °F 54.5 °F 30.13 in Calm   2.0 mph 47% 0.00 in WeatherDisplay:10.37 W/m2 SCT
19:30 75.3 °F 54.3 °F 30.13 in Calm     48% 0.00 in WeatherDisplay:10.37 W/m2 SCT
19:45 74.4 °F 54.5 °F 30.13 in Calm     50% 0.00 in WeatherDisplay:10.37 W/m2 SCT
20:00 73.5 °F 54.3 °F 30.13 in Calm     51% 0.00 in WeatherDisplay:10.37 W/m2 SCT
20:15 72.7 °F 55.1 °F 30.13 in Calm     54% 0.00 in WeatherDisplay:10.37 W/m2 SCT
20:30 72.0 °F 55.4 °F 30.14 in Calm     56% 0.00 in WeatherDisplay:10.37 W/m2 SCT
20:45 71.4 °F 55.4 °F 30.14 in Calm     57% 0.00 in WeatherDisplay:10.37 W/m2 SCT
21:00 71.0 °F 55.5 °F 30.15 in Calm     58% 0.00 in WeatherDisplay:10.37 W/m2 SCT
21:15 70.7 °F 55.7 °F 30.15 in Calm     59% 0.00 in WeatherDisplay:10.37 W/m2 SCT
21:30 70.5 °F 55.5 °F 30.15 in Calm     59% 0.00 in WeatherDisplay:10.37 W/m2 SCT
21:45 70.1 °F 55.5 °F 30.15 in Calm     60% 0.00 in WeatherDisplay:10.37 W/m2 SCT
22:00 69.6 °F 56.0 °F 30.16 in Calm     62% 0.00 in WeatherDisplay:10.37 W/m2 SCT
22:15 68.9 °F 55.3 °F 30.16 in Calm     62% 0.00 in WeatherDisplay:10.37 W/m2 SCT
22:30 68.3 °F 56.1 °F 30.16 in Calm     65% 0.00 in WeatherDisplay:10.37 W/m2 SCT
22:45 67.3 °F 56.0 °F 30.16 in Calm     67% 0.00 in WeatherDisplay:10.37 W/m2 SCT
23:00 66.4 °F 55.9 °F 30.16 in Calm     69% 0.00 in WeatherDisplay:10.37 W/m2 SCT
23:15 65.8 °F 56.1 °F 30.15 in Calm     71% 0.00 in WeatherDisplay:10.37 W/m2 SCT
23:30 65.3 °F 56.0 °F 30.15 in Calm     72% 0.00 in WeatherDisplay:10.37 W/m2 SCT
23:45 65.0 °F 56.1 °F 30.15 in Calm     73% 0.00 in WeatherDisplay:10.37 W/m2 SCT
Piedmont Bend
Compliments of Weather Underground - 4 mb